sensor_id;sensor_type;location;lat;lon;timestamp;P1;durP1;ratioP1;P2;durP2;ratioP2
6199;SDS011;3133;43.214;27.906;2023-08-20T00:00:58;11.30;;;8.50;;
6199;SDS011;3133;43.214;27.906;2023-08-20T00:03:25;11.50;;;8.60;;
6199;SDS011;3133;43.214;27.906;2023-08-20T00:05:54;10.60;;;8.70;;
6199;SDS011;3133;43.214;27.906;2023-08-20T00:08:21;14.43;;;8.70;;
6199;SDS011;3133;43.214;27.906;2023-08-20T00:10:48;13.00;;;9.20;;
6199;SDS011;3133;43.214;27.906;2023-08-20T00:13:15;9.83;;;8.83;;
6199;SDS011;3133;43.214;27.906;2023-08-20T00:15:42;11.70;;;8.63;;
6199;SDS011;3133;43.214;27.906;2023-08-20T00:18:10;12.70;;;8.37;;
6199;SDS011;3133;43.214;27.906;2023-08-20T00:20:37;10.67;;;9.00;;
6199;SDS011;3133;43.214;27.906;2023-08-20T00:23:07;10.73;;;8.67;;
6199;SDS011;3133;43.214;27.906;2023-08-20T00:25:35;11.90;;;9.60;;
6199;SDS011;3133;43.214;27.906;2023-08-20T00:28:02;10.93;;;9.17;;
6199;SDS011;3133;43.214;27.906;2023-08-20T00:30:29;15.43;;;9.27;;
6199;SDS011;3133;43.214;27.906;2023-08-20T00:32:56;11.23;;;8.20;;
6199;SDS011;3133;43.214;27.906;2023-08-20T00:35:23;16.27;;;7.90;;
6199;SDS011;3133;43.214;27.906;2023-08-20T00:37:52;10.43;;;8.63;;
6199;SDS011;3133;43.214;27.906;2023-08-20T00:40:20;12.67;;;8.70;;
6199;SDS011;3133;43.214;27.906;2023-08-20T00:42:47;13.57;;;9.47;;
6199;SDS011;3133;43.214;27.906;2023-08-20T00:45:14;10.17;;;9.13;;
6199;SDS011;3133;43.214;27.906;2023-08-20T00:47:41;13.00;;;9.83;;
6199;SDS011;3133;43.214;27.906;2023-08-20T00:50:09;15.20;;;9.30;;
6199;SDS011;3133;43.214;27.906;2023-08-20T00:52:37;12.10;;;8.50;;
6199;SDS011;3133;43.214;27.906;2023-08-20T00:55:07;9.40;;;8.53;;
6199;SDS011;3133;43.214;27.906;2023-08-20T00:57:37;12.67;;;8.90;;
6199;SDS011;3133;43.214;27.906;2023-08-20T01:00:05;12.67;;;8.43;;
6199;SDS011;3133;43.214;27.906;2023-08-20T01:02:34;9.60;;;8.43;;
6199;SDS011;3133;43.214;27.906;2023-08-20T01:05:01;10.90;;;9.13;;
6199;SDS011;3133;43.214;27.906;2023-08-20T01:07:30;12.63;;;9.43;;
6199;SDS011;3133;43.214;27.906;2023-08-20T01:10:08;12.60;;;9.60;;
6199;SDS011;3133;43.214;27.906;2023-08-20T01:12:42;10.03;;;8.93;;
6199;SDS011;3133;43.214;27.906;2023-08-20T01:15:10;11.13;;;8.73;;
6199;SDS011;3133;43.214;27.906;2023-08-20T01:17:39;22.77;;;8.87;;
6199;SDS011;3133;43.214;27.906;2023-08-20T01:20:06;15.27;;;9.03;;
6199;SDS011;3133;43.214;27.906;2023-08-20T01:22:40;13.83;;;9.53;;
6199;SDS011;3133;43.214;27.906;2023-08-20T01:25:23;12.10;;;8.93;;
6199;SDS011;3133;43.214;27.906;2023-08-20T01:28:01;15.33;;;8.97;;
6199;SDS011;3133;43.214;27.906;2023-08-20T01:30:35;12.10;;;9.50;;
6199;SDS011;3133;43.214;27.906;2023-08-20T01:33:03;10.50;;;8.93;;
6199;SDS011;3133;43.214;27.906;2023-08-20T01:35:30;9.63;;;8.73;;
6199;SDS011;3133;43.214;27.906;2023-08-20T01:37:57;11.40;;;9.20;;
6199;SDS011;3133;43.214;27.906;2023-08-20T01:40:24;9.67;;;8.67;;
6199;SDS011;3133;43.214;27.906;2023-08-20T01:42:52;11.43;;;8.73;;
6199;SDS011;3133;43.214;27.906;2023-08-20T01:45:18;10.23;;;8.50;;
6199;SDS011;3133;43.214;27.906;2023-08-20T01:47:48;11.30;;;9.00;;
6199;SDS011;3133;43.214;27.906;2023-08-20T01:50:15;10.17;;;8.40;;
6199;SDS011;3133;43.214;27.906;2023-08-20T01:52:42;14.13;;;9.53;;
6199;SDS011;3133;43.214;27.906;2023-08-20T01:55:09;10.30;;;9.10;;
6199;SDS011;3133;43.214;27.906;2023-08-20T01:57:36;14.33;;;8.87;;
6199;SDS011;3133;43.214;27.906;2023-08-20T02:00:03;10.97;;;9.10;;
6199;SDS011;3133;43.214;27.906;2023-08-20T02:02:33;11.07;;;9.00;;
6199;SDS011;3133;43.214;27.906;2023-08-20T02:05:01;16.20;;;10.07;;
6199;SDS011;3133;43.214;27.906;2023-08-20T02:07:29;13.73;;;9.47;;
6199;SDS011;3133;43.214;27.906;2023-08-20T02:09:55;15.27;;;9.03;;
6199;SDS011;3133;43.214;27.906;2023-08-20T02:12:22;12.13;;;9.20;;
6199;SDS011;3133;43.214;27.906;2023-08-20T02:14:49;15.63;;;8.80;;
6199;SDS011;3133;43.214;27.906;2023-08-20T02:17:19;15.17;;;9.83;;
6199;SDS011;3133;43.214;27.906;2023-08-20T02:19:46;19.87;;;10.43;;
6199;SDS011;3133;43.214;27.906;2023-08-20T02:22:16;14.23;;;10.20;;
6199;SDS011;3133;43.214;27.906;2023-08-20T02:24:46;25.63;;;10.83;;
6199;SDS011;3133;43.214;27.906;2023-08-20T02:27:12;14.37;;;10.40;;
6199;SDS011;3133;43.214;27.906;2023-08-20T02:29:39;15.13;;;11.70;;
6199;SDS011;3133;43.214;27.906;2023-08-20T02:32:06;18.30;;;13.57;;
6199;SDS011;3133;43.214;27.906;2023-08-20T02:34:33;21.60;;;13.57;;
6199;SDS011;3133;43.214;27.906;2023-08-20T02:37:00;22.03;;;13.40;;
6199;SDS011;3133;43.214;27.906;2023-08-20T02:39:28;23.33;;;13.77;;
6199;SDS011;3133;43.214;27.906;2023-08-20T02:41:56;22.27;;;16.50;;
6199;SDS011;3133;43.214;27.906;2023-08-20T02:44:23;22.67;;;17.67;;
6199;SDS011;3133;43.214;27.906;2023-08-20T02:46:50;24.17;;;18.17;;
6199;SDS011;3133;43.214;27.906;2023-08-20T02:49:16;31.30;;;19.10;;
6199;SDS011;3133;43.214;27.906;2023-08-20T02:51:43;24.87;;;18.57;;
6199;SDS011;3133;43.214;27.906;2023-08-20T02:54:10;32.03;;;19.67;;
6199;SDS011;3133;43.214;27.906;2023-08-20T02:56:38;27.17;;;19.03;;
6199;SDS011;3133;43.214;27.906;2023-08-20T02:59:05;32.80;;;19.37;;
6199;SDS011;3133;43.214;27.906;2023-08-20T03:01:32;26.37;;;18.53;;
6199;SDS011;3133;43.214;27.906;2023-08-20T03:03:59;24.33;;;17.13;;
6199;SDS011;3133;43.214;27.906;2023-08-20T03:06:26;25.50;;;17.23;;
6199;SDS011;3133;43.214;27.906;2023-08-20T03:08:53;22.70;;;16.37;;
6199;SDS011;3133;43.214;27.906;2023-08-20T03:11:20;25.77;;;18.20;;
6199;SDS011;3133;43.214;27.906;2023-08-20T03:13:49;31.13;;;18.80;;
6199;SDS011;3133;43.214;27.906;2023-08-20T03:16:15;29.43;;;20.03;;
6199;SDS011;3133;43.214;27.906;2023-08-20T03:18:42;27.27;;;20.30;;
6199;SDS011;3133;43.214;27.906;2023-08-20T03:21:09;33.97;;;20.93;;
6199;SDS011;3133;43.214;27.906;2023-08-20T03:23:36;44.07;;;22.03;;
6199;SDS011;3133;43.214;27.906;2023-08-20T03:26:03;34.53;;;23.63;;
6199;SDS011;3133;43.214;27.906;2023-08-20T03:28:31;37.00;;;21.70;;
6199;SDS011;3133;43.214;27.906;2023-08-20T03:31:00;29.97;;;21.40;;
6199;SDS011;3133;43.214;27.906;2023-08-20T03:33:27;32.97;;;21.87;;
6199;SDS011;3133;43.214;27.906;2023-08-20T03:35:54;30.73;;;21.90;;
6199;SDS011;3133;43.214;27.906;2023-08-20T03:38:21;31.27;;;22.67;;
6199;SDS011;3133;43.214;27.906;2023-08-20T03:40:48;35.43;;;21.87;;
6199;SDS011;3133;43.214;27.906;2023-08-20T03:43:16;38.17;;;24.03;;
6199;SDS011;3133;43.214;27.906;2023-08-20T03:45:42;29.70;;;22.93;;
6199;SDS011;3133;43.214;27.906;2023-08-20T03:48:11;34.97;;;24.03;;
6199;SDS011;3133;43.214;27.906;2023-08-20T03:50:37;33.60;;;24.20;;
6199;SDS011;3133;43.214;27.906;2023-08-20T03:53:04;35.53;;;24.30;;
6199;SDS011;3133;43.214;27.906;2023-08-20T03:55:31;37.37;;;24.87;;
6199;SDS011;3133;43.214;27.906;2023-08-20T03:57:58;31.43;;;23.03;;
6199;SDS011;3133;43.214;27.906;2023-08-20T04:00:25;31.33;;;21.73;;
6199;SDS011;3133;43.214;27.906;2023-08-20T04:02:51;28.73;;;21.90;;
6199;SDS011;3133;43.214;27.906;2023-08-20T04:05:20;32.87;;;22.83;;
6199;SDS011;3133;43.214;27.906;2023-08-20T04:07:46;33.23;;;22.50;;
6199;SDS011;3133;43.214;27.906;2023-08-20T04:10:13;34.73;;;22.23;;
6199;SDS011;3133;43.214;27.906;2023-08-20T04:12:40;37.00;;;22.77;;
6199;SDS011;3133;43.214;27.906;2023-08-20T04:15:07;35.67;;;21.13;;
6199;SDS011;3133;43.214;27.906;2023-08-20T04:17:34;31.37;;;23.00;;
6199;SDS011;3133;43.214;27.906;2023-08-20T04:20:01;36.07;;;23.13;;
6199;SDS011;3133;43.214;27.906;2023-08-20T04:22:34;29.97;;;22.10;;
6199;SDS011;3133;43.214;27.906;2023-08-20T04:25:02;33.73;;;22.93;;
6199;SDS011;3133;43.214;27.906;2023-08-20T04:27:29;31.60;;;22.37;;
6199;SDS011;3133;43.214;27.906;2023-08-20T04:29:56;33.53;;;21.87;;
6199;SDS011;3133;43.214;27.906;2023-08-20T04:32:23;37.33;;;23.70;;
6199;SDS011;3133;43.214;27.906;2023-08-20T04:34:49;37.07;;;24.10;;
6199;SDS011;3133;43.214;27.906;2023-08-20T04:37:18;25.90;;;21.33;;
6199;SDS011;3133;43.214;27.906;2023-08-20T04:39:48;37.43;;;20.30;;
6199;SDS011;3133;43.214;27.906;2023-08-20T04:42:19;37.90;;;23.77;;
6199;SDS011;3133;43.214;27.906;2023-08-20T04:44:45;29.80;;;23.73;;
6199;SDS011;3133;43.214;27.906;2023-08-20T04:47:12;31.30;;;24.30;;
6199;SDS011;3133;43.214;27.906;2023-08-20T04:49:39;33.80;;;23.83;;
6199;SDS011;3133;43.214;27.906;2023-08-20T04:52:06;31.03;;;23.40;;
6199;SDS011;3133;43.214;27.906;2023-08-20T04:54:36;31.27;;;19.43;;
6199;SDS011;3133;43.214;27.906;2023-08-20T04:57:06;25.37;;;15.60;;
6199;SDS011;3133;43.214;27.906;2023-08-20T04:59:34;21.00;;;14.47;;
6199;SDS011;3133;43.214;27.906;2023-08-20T05:02:01;16.07;;;12.40;;
6199;SDS011;3133;43.214;27.906;2023-08-20T05:04:27;15.10;;;11.40;;
6199;SDS011;3133;43.214;27.906;2023-08-20T05:06:54;16.10;;;11.50;;
6199;SDS011;3133;43.214;27.906;2023-08-20T05:09:21;18.17;;;11.53;;
6199;SDS011;3133;43.214;27.906;2023-08-20T05:11:48;16.70;;;11.20;;
6199;SDS011;3133;43.214;27.906;2023-08-20T05:14:16;25.50;;;12.00;;
6199;SDS011;3133;43.214;27.906;2023-08-20T05:16:43;19.60;;;12.23;;
6199;SDS011;3133;43.214;27.906;2023-08-20T05:19:10;23.00;;;13.23;;
6199;SDS011;3133;43.214;27.906;2023-08-20T05:21:37;18.33;;;13.23;;
6199;SDS011;3133;43.214;27.906;2023-08-20T05:24:04;19.57;;;12.53;;
6199;SDS011;3133;43.214;27.906;2023-08-20T05:26:31;20.17;;;13.70;;
6199;SDS011;3133;43.214;27.906;2023-08-20T05:28:58;16.83;;;13.87;;
6199;SDS011;3133;43.214;27.906;2023-08-20T05:31:28;18.47;;;12.70;;
6199;SDS011;3133;43.214;27.906;2023-08-20T05:33:55;19.23;;;12.60;;
6199;SDS011;3133;43.214;27.906;2023-08-20T05:36:22;13.60;;;11.83;;
6199;SDS011;3133;43.214;27.906;2023-08-20T05:38:49;14.13;;;10.97;;
6199;SDS011;3133;43.214;27.906;2023-08-20T05:41:16;19.30;;;11.83;;
6199;SDS011;3133;43.214;27.906;2023-08-20T05:43:43;18.90;;;10.63;;
6199;SDS011;3133;43.214;27.906;2023-08-20T05:46:09;16.83;;;10.40;;
6199;SDS011;3133;43.214;27.906;2023-08-20T05:48:38;11.90;;;9.70;;
6199;SDS011;3133;43.214;27.906;2023-08-20T05:51:04;13.57;;;9.43;;
6199;SDS011;3133;43.214;27.906;2023-08-20T05:53:31;14.07;;;8.80;;
6199;SDS011;3133;43.214;27.906;2023-08-20T05:55:58;15.10;;;9.10;;
6199;SDS011;3133;43.214;27.906;2023-08-20T05:58:25;12.00;;;8.50;;
6199;SDS011;3133;43.214;27.906;2023-08-20T06:00:52;11.37;;;8.67;;
6199;SDS011;3133;43.214;27.906;2023-08-20T06:03:19;15.57;;;8.97;;
6199;SDS011;3133;43.214;27.906;2023-08-20T06:05:47;9.10;;;8.17;;
6199;SDS011;3133;43.214;27.906;2023-08-20T06:08:14;10.60;;;7.90;;
6199;SDS011;3133;43.214;27.906;2023-08-20T06:10:41;10.20;;;7.93;;
6199;SDS011;3133;43.214;27.906;2023-08-20T06:13:08;21.63;;;7.90;;
6199;SDS011;3133;43.214;27.906;2023-08-20T06:15:36;9.93;;;7.97;;
6199;SDS011;3133;43.214;27.906;2023-08-20T06:18:05;9.07;;;7.57;;
6199;SDS011;3133;43.214;27.906;2023-08-20T06:20:32;7.70;;;6.83;;
6199;SDS011;3133;43.214;27.906;2023-08-20T06:23:00;9.17;;;7.07;;
6199;SDS011;3133;43.214;27.906;2023-08-20T06:25:27;12.43;;;7.23;;
6199;SDS011;3133;43.214;27.906;2023-08-20T06:27:54;10.00;;;6.97;;
6199;SDS011;3133;43.214;27.906;2023-08-20T06:30:21;10.60;;;7.53;;
6199;SDS011;3133;43.214;27.906;2023-08-20T06:32:48;10.60;;;7.07;;
6199;SDS011;3133;43.214;27.906;2023-08-20T06:35:15;12.13;;;7.80;;
6199;SDS011;3133;43.214;27.906;2023-08-20T06:37:42;8.10;;;6.90;;
6199;SDS011;3133;43.214;27.906;2023-08-20T06:40:11;10.57;;;7.37;;
6199;SDS011;3133;43.214;27.906;2023-08-20T06:42:38;13.77;;;7.30;;
6199;SDS011;3133;43.214;27.906;2023-08-20T06:45:07;8.60;;;5.97;;
6199;SDS011;3133;43.214;27.906;2023-08-20T06:47:34;9.63;;;7.17;;
6199;SDS011;3133;43.214;27.906;2023-08-20T06:50:02;10.70;;;6.27;;
6199;SDS011;3133;43.214;27.906;2023-08-20T06:52:29;7.67;;;6.10;;
6199;SDS011;3133;43.214;27.906;2023-08-20T06:54:58;12.83;;;6.97;;
6199;SDS011;3133;43.214;27.906;2023-08-20T06:57:26;9.63;;;6.47;;
6199;SDS011;3133;43.214;27.906;2023-08-20T06:59:53;19.60;;;6.67;;
6199;SDS011;3133;43.214;27.906;2023-08-20T07:02:19;11.27;;;6.27;;
6199;SDS011;3133;43.214;27.906;2023-08-20T07:04:46;9.93;;;6.07;;
6199;SDS011;3133;43.214;27.906;2023-08-20T07:07:13;7.03;;;6.17;;
6199;SDS011;3133;43.214;27.906;2023-08-20T07:09:41;8.00;;;6.30;;
6199;SDS011;3133;43.214;27.906;2023-08-20T07:12:10;15.30;;;6.13;;
6199;SDS011;3133;43.214;27.906;2023-08-20T07:14:39;8.27;;;7.00;;
6199;SDS011;3133;43.214;27.906;2023-08-20T07:17:06;7.87;;;6.47;;
6199;SDS011;3133;43.214;27.906;2023-08-20T07:19:32;9.50;;;5.80;;
6199;SDS011;3133;43.214;27.906;2023-08-20T07:21:59;6.43;;;5.83;;
6199;SDS011;3133;43.214;27.906;2023-08-20T07:24:26;8.30;;;5.80;;
6199;SDS011;3133;43.214;27.906;2023-08-20T07:26:54;10.10;;;6.23;;
6199;SDS011;3133;43.214;27.906;2023-08-20T07:29:26;6.30;;;5.63;;
6199;SDS011;3133;43.214;27.906;2023-08-20T07:31:56;10.40;;;6.13;;
6199;SDS011;3133;43.214;27.906;2023-08-20T07:34:23;11.40;;;6.50;;
6199;SDS011;3133;43.214;27.906;2023-08-20T07:36:50;8.27;;;6.00;;
6199;SDS011;3133;43.214;27.906;2023-08-20T07:39:17;8.60;;;5.97;;
6199;SDS011;3133;43.214;27.906;2023-08-20T07:41:44;8.83;;;5.63;;
6199;SDS011;3133;43.214;27.906;2023-08-20T07:44:10;13.17;;;6.37;;
6199;SDS011;3133;43.214;27.906;2023-08-20T07:46:37;10.53;;;6.23;;
6199;SDS011;3133;43.214;27.906;2023-08-20T07:49:05;11.97;;;5.70;;
6199;SDS011;3133;43.214;27.906;2023-08-20T07:51:32;7.67;;;6.10;;
6199;SDS011;3133;43.214;27.906;2023-08-20T07:54:00;7.47;;;6.03;;
6199;SDS011;3133;43.214;27.906;2023-08-20T07:56:30;7.63;;;6.27;;
6199;SDS011;3133;43.214;27.906;2023-08-20T07:58:57;9.37;;;6.27;;
6199;SDS011;3133;43.214;27.906;2023-08-20T08:01:24;11.20;;;6.23;;
6199;SDS011;3133;43.214;27.906;2023-08-20T08:03:50;7.83;;;6.47;;
6199;SDS011;3133;43.214;27.906;2023-08-20T08:06:19;11.90;;;7.07;;
6199;SDS011;3133;43.214;27.906;2023-08-20T08:08:48;11.50;;;6.37;;
6199;SDS011;3133;43.214;27.906;2023-08-20T08:11:15;7.00;;;6.00;;
6199;SDS011;3133;43.214;27.906;2023-08-20T08:13:41;13.13;;;7.40;;
6199;SDS011;3133;43.214;27.906;2023-08-20T08:16:09;12.87;;;6.60;;
6199;SDS011;3133;43.214;27.906;2023-08-20T08:18:36;11.93;;;7.30;;
6199;SDS011;3133;43.214;27.906;2023-08-20T08:21:03;9.80;;;7.00;;
6199;SDS011;3133;43.214;27.906;2023-08-20T08:23:33;10.57;;;6.87;;
6199;SDS011;3133;43.214;27.906;2023-08-20T08:26:00;8.10;;;6.80;;
6199;SDS011;3133;43.214;27.906;2023-08-20T08:28:27;8.77;;;6.60;;
6199;SDS011;3133;43.214;27.906;2023-08-20T08:30:54;10.30;;;7.10;;
6199;SDS011;3133;43.214;27.906;2023-08-20T08:33:21;8.27;;;7.07;;
6199;SDS011;3133;43.214;27.906;2023-08-20T08:35:50;9.23;;;6.20;;
6199;SDS011;3133;43.214;27.906;2023-08-20T08:38:17;9.00;;;6.43;;
6199;SDS011;3133;43.214;27.906;2023-08-20T08:40:45;12.50;;;7.33;;
6199;SDS011;3133;43.214;27.906;2023-08-20T08:43:13;10.17;;;7.40;;
6199;SDS011;3133;43.214;27.906;2023-08-20T08:45:44;7.80;;;5.13;;
6199;SDS011;3133;43.214;27.906;2023-08-20T08:48:14;12.93;;;6.80;;
6199;SDS011;3133;43.214;27.906;2023-08-20T08:50:42;9.17;;;6.40;;
6199;SDS011;3133;43.214;27.906;2023-08-20T08:53:09;11.03;;;6.93;;
6199;SDS011;3133;43.214;27.906;2023-08-20T08:55:36;6.70;;;6.07;;
6199;SDS011;3133;43.214;27.906;2023-08-20T08:58:05;10.23;;;6.47;;
6199;SDS011;3133;43.214;27.906;2023-08-20T09:00:32;10.77;;;6.37;;
6199;SDS011;3133;43.214;27.906;2023-08-20T09:02:59;14.43;;;6.50;;
6199;SDS011;3133;43.214;27.906;2023-08-20T09:05:26;19.10;;;7.03;;
6199;SDS011;3133;43.214;27.906;2023-08-20T09:07:55;9.43;;;6.33;;
6199;SDS011;3133;43.214;27.906;2023-08-20T09:10:25;8.43;;;5.70;;
6199;SDS011;3133;43.214;27.906;2023-08-20T09:12:53;10.63;;;6.40;;
6199;SDS011;3133;43.214;27.906;2023-08-20T09:15:24;12.43;;;6.03;;
6199;SDS011;3133;43.214;27.906;2023-08-20T09:18:01;13.50;;;6.03;;
6199;SDS011;3133;43.214;27.906;2023-08-20T09:20:34;9.00;;;6.20;;
6199;SDS011;3133;43.214;27.906;2023-08-20T09:23:01;6.53;;;5.73;;
6199;SDS011;3133;43.214;27.906;2023-08-20T09:25:28;6.37;;;5.77;;
6199;SDS011;3133;43.214;27.906;2023-08-20T09:28:04;7.33;;;5.23;;
6199;SDS011;3133;43.214;27.906;2023-08-20T09:30:33;6.67;;;4.13;;
6199;SDS011;3133;43.214;27.906;2023-08-20T09:33:03;13.80;;;5.80;;
6199;SDS011;3133;43.214;27.906;2023-08-20T09:35:31;9.23;;;5.47;;
6199;SDS011;3133;43.214;27.906;2023-08-20T09:37:58;8.53;;;5.73;;
6199;SDS011;3133;43.214;27.906;2023-08-20T09:40:26;11.23;;;6.50;;
6199;SDS011;3133;43.214;27.906;2023-08-20T09:42:54;8.43;;;5.23;;
6199;SDS011;3133;43.214;27.906;2023-08-20T09:45:22;10.13;;;4.90;;
6199;SDS011;3133;43.214;27.906;2023-08-20T09:47:56;5.67;;;4.67;;
6199;SDS011;3133;43.214;27.906;2023-08-20T09:50:24;5.83;;;5.03;;
6199;SDS011;3133;43.214;27.906;2023-08-20T09:52:55;5.93;;;4.93;;
6199;SDS011;3133;43.214;27.906;2023-08-20T09:55:33;8.83;;;5.47;;
6199;SDS011;3133;43.214;27.906;2023-08-20T09:58:02;5.57;;;4.73;;
6199;SDS011;3133;43.214;27.906;2023-08-20T10:00:29;5.03;;;4.00;;
6199;SDS011;3133;43.214;27.906;2023-08-20T10:02:58;6.50;;;3.80;;
6199;SDS011;3133;43.214;27.906;2023-08-20T10:05:25;4.37;;;3.57;;
6199;SDS011;3133;43.214;27.906;2023-08-20T10:07:52;7.87;;;4.63;;
6199;SDS011;3133;43.214;27.906;2023-08-20T10:10:20;4.23;;;3.83;;
6199;SDS011;3133;43.214;27.906;2023-08-20T10:12:53;10.90;;;4.40;;
6199;SDS011;3133;43.214;27.906;2023-08-20T10:15:21;3.80;;;3.50;;
6199;SDS011;3133;43.214;27.906;2023-08-20T10:17:51;3.77;;;3.37;;
6199;SDS011;3133;43.214;27.906;2023-08-20T10:20:20;9.17;;;3.67;;
6199;SDS011;3133;43.214;27.906;2023-08-20T10:22:47;5.67;;;4.77;;
6199;SDS011;3133;43.214;27.906;2023-08-20T10:25:22;9.60;;;4.80;;
6199;SDS011;3133;43.214;27.906;2023-08-20T10:27:49;10.70;;;4.33;;
6199;SDS011;3133;43.214;27.906;2023-08-20T10:30:17;7.30;;;3.93;;
6199;SDS011;3133;43.214;27.906;2023-08-20T10:32:47;7.13;;;4.00;;
6199;SDS011;3133;43.214;27.906;2023-08-20T10:35:16;4.47;;;3.70;;
6199;SDS011;3133;43.214;27.906;2023-08-20T10:43:26;7.80;;;3.90;;
6199;SDS011;3133;43.214;27.906;2023-08-20T10:46:03;3.57;;;3.27;;
6199;SDS011;3133;43.214;27.906;2023-08-20T10:48:36;5.23;;;3.03;;
6199;SDS011;3133;43.214;27.906;2023-08-20T10:51:10;5.90;;;3.80;;
6199;SDS011;3133;43.214;27.906;2023-08-20T10:53:40;5.03;;;3.90;;
6199;SDS011;3133;43.214;27.906;2023-08-20T10:56:08;6.83;;;3.63;;
6199;SDS011;3133;43.214;27.906;2023-08-20T10:58:44;5.40;;;3.70;;
6199;SDS011;3133;43.214;27.906;2023-08-20T11:01:13;3.47;;;3.17;;
6199;SDS011;3133;43.214;27.906;2023-08-20T11:03:44;4.43;;;3.53;;
6199;SDS011;3133;43.214;27.906;2023-08-20T11:06:12;7.83;;;3.50;;
6199;SDS011;3133;43.214;27.906;2023-08-20T11:08:40;13.20;;;4.33;;
6199;SDS011;3133;43.214;27.906;2023-08-20T11:11:08;4.53;;;3.77;;
6199;SDS011;3133;43.214;27.906;2023-08-20T11:13:35;4.83;;;3.97;;
6199;SDS011;3133;43.214;27.906;2023-08-20T11:16:02;9.00;;;4.17;;
6199;SDS011;3133;43.214;27.906;2023-08-20T11:18:30;8.73;;;4.40;;
6199;SDS011;3133;43.214;27.906;2023-08-20T11:20:59;9.07;;;4.77;;
6199;SDS011;3133;43.214;27.906;2023-08-20T11:23:26;7.00;;;4.70;;
6199;SDS011;3133;43.214;27.906;2023-08-20T11:25:55;6.50;;;4.70;;
6199;SDS011;3133;43.214;27.906;2023-08-20T11:28:22;8.07;;;4.97;;
6199;SDS011;3133;43.214;27.906;2023-08-20T11:30:52;6.53;;;4.50;;
6199;SDS011;3133;43.214;27.906;2023-08-20T11:33:20;6.37;;;4.37;;
6199;SDS011;3133;43.214;27.906;2023-08-20T11:35:48;6.57;;;4.53;;
6199;SDS011;3133;43.214;27.906;2023-08-20T11:38:15;7.50;;;4.47;;
6199;SDS011;3133;43.214;27.906;2023-08-20T11:40:42;5.53;;;4.60;;
6199;SDS011;3133;43.214;27.906;2023-08-20T11:43:10;6.60;;;4.90;;
6199;SDS011;3133;43.214;27.906;2023-08-20T11:45:44;7.73;;;4.87;;
6199;SDS011;3133;43.214;27.906;2023-08-20T11:48:12;7.73;;;5.73;;
6199;SDS011;3133;43.214;27.906;2023-08-20T11:50:39;5.73;;;4.90;;
6199;SDS011;3133;43.214;27.906;2023-08-20T11:53:07;7.90;;;5.00;;
6199;SDS011;3133;43.214;27.906;2023-08-20T11:55:35;6.03;;;3.80;;
6199;SDS011;3133;43.214;27.906;2023-08-20T11:58:03;6.83;;;4.50;;
6199;SDS011;3133;43.214;27.906;2023-08-20T12:00:32;5.63;;;4.20;;
6199;SDS011;3133;43.214;27.906;2023-08-20T12:02:58;7.80;;;4.10;;
6199;SDS011;3133;43.214;27.906;2023-08-20T12:05:26;8.40;;;4.50;;
6199;SDS011;3133;43.214;27.906;2023-08-20T12:07:57;6.13;;;4.23;;
6199;SDS011;3133;43.214;27.906;2023-08-20T12:10:25;6.30;;;4.47;;
6199;SDS011;3133;43.214;27.906;2023-08-20T12:12:53;5.60;;;4.47;;
6199;SDS011;3133;43.214;27.906;2023-08-20T12:15:21;6.23;;;4.43;;
6199;SDS011;3133;43.214;27.906;2023-08-20T12:18:02;8.17;;;4.60;;
6199;SDS011;3133;43.214;27.906;2023-08-20T12:20:31;9.13;;;4.67;;
6199;SDS011;3133;43.214;27.906;2023-08-20T12:23:01;8.87;;;4.10;;
6199;SDS011;3133;43.214;27.906;2023-08-20T12:25:30;6.47;;;4.63;;
6199;SDS011;3133;43.214;27.906;2023-08-20T12:27:59;7.70;;;4.67;;
6199;SDS011;3133;43.214;27.906;2023-08-20T12:30:29;5.33;;;4.40;;
6199;SDS011;3133;43.214;27.906;2023-08-20T12:32:57;9.40;;;4.20;;
6199;SDS011;3133;43.214;27.906;2023-08-20T12:35:28;6.43;;;4.37;;
6199;SDS011;3133;43.214;27.906;2023-08-20T12:37:55;6.33;;;4.50;;
6199;SDS011;3133;43.214;27.906;2023-08-20T12:40:22;5.60;;;4.10;;
6199;SDS011;3133;43.214;27.906;2023-08-20T12:42:48;11.23;;;4.87;;
6199;SDS011;3133;43.214;27.906;2023-08-20T12:45:15;9.27;;;4.97;;
6199;SDS011;3133;43.214;27.906;2023-08-20T12:47:42;8.13;;;4.27;;
6199;SDS011;3133;43.214;27.906;2023-08-20T12:50:09;9.03;;;4.60;;
6199;SDS011;3133;43.214;27.906;2023-08-20T12:52:39;6.20;;;5.00;;
6199;SDS011;3133;43.214;27.906;2023-08-20T12:55:08;6.57;;;5.10;;
6199;SDS011;3133;43.214;27.906;2023-08-20T12:57:36;6.20;;;4.63;;
6199;SDS011;3133;43.214;27.906;2023-08-20T13:00:03;8.23;;;4.33;;
6199;SDS011;3133;43.214;27.906;2023-08-20T13:02:36;7.70;;;4.50;;
6199;SDS011;3133;43.214;27.906;2023-08-20T13:05:04;5.80;;;4.70;;
6199;SDS011;3133;43.214;27.906;2023-08-20T13:07:31;7.17;;;5.20;;
6199;SDS011;3133;43.214;27.906;2023-08-20T13:10:00;5.33;;;4.53;;
6199;SDS011;3133;43.214;27.906;2023-08-20T13:12:27;5.30;;;4.63;;
6199;SDS011;3133;43.214;27.906;2023-08-20T13:14:58;9.93;;;5.30;;
6199;SDS011;3133;43.214;27.906;2023-08-20T13:17:25;7.80;;;4.60;;
6199;SDS011;3133;43.214;27.906;2023-08-20T13:19:52;7.27;;;4.80;;
6199;SDS011;3133;43.214;27.906;2023-08-20T13:22:19;5.20;;;4.63;;
6199;SDS011;3133;43.214;27.906;2023-08-20T13:24:46;7.17;;;5.20;;
6199;SDS011;3133;43.214;27.906;2023-08-20T13:27:14;5.93;;;5.30;;
6199;SDS011;3133;43.214;27.906;2023-08-20T13:29:41;13.07;;;6.33;;
6199;SDS011;3133;43.214;27.906;2023-08-20T13:32:08;5.97;;;5.30;;
6199;SDS011;3133;43.214;27.906;2023-08-20T13:34:35;8.37;;;5.17;;
6199;SDS011;3133;43.214;27.906;2023-08-20T13:37:02;8.97;;;4.90;;
6199;SDS011;3133;43.214;27.906;2023-08-20T13:39:29;7.97;;;5.37;;
6199;SDS011;3133;43.214;27.906;2023-08-20T13:41:56;9.27;;;5.27;;
6199;SDS011;3133;43.214;27.906;2023-08-20T13:44:24;7.33;;;5.00;;
6199;SDS011;3133;43.214;27.906;2023-08-20T13:46:51;7.20;;;5.43;;
6199;SDS011;3133;43.214;27.906;2023-08-20T13:49:18;9.40;;;5.47;;
6199;SDS011;3133;43.214;27.906;2023-08-20T13:51:47;11.07;;;5.30;;
6199;SDS011;3133;43.214;27.906;2023-08-20T13:54:14;11.70;;;5.07;;
6199;SDS011;3133;43.214;27.906;2023-08-20T13:56:41;6.00;;;5.03;;
6199;SDS011;3133;43.214;27.906;2023-08-20T13:59:10;9.40;;;5.60;;
6199;SDS011;3133;43.214;27.906;2023-08-20T14:01:38;6.63;;;5.33;;
6199;SDS011;3133;43.214;27.906;2023-08-20T14:04:05;7.97;;;5.70;;
6199;SDS011;3133;43.214;27.906;2023-08-20T14:06:32;9.37;;;5.63;;
6199;SDS011;3133;43.214;27.906;2023-08-20T14:08:59;9.93;;;6.03;;
6199;SDS011;3133;43.214;27.906;2023-08-20T14:11:26;7.87;;;5.43;;
6199;SDS011;3133;43.214;27.906;2023-08-20T14:13:53;8.43;;;5.80;;
6199;SDS011;3133;43.214;27.906;2023-08-20T14:16:19;9.53;;;5.47;;
6199;SDS011;3133;43.214;27.906;2023-08-20T14:18:48;7.93;;;5.47;;
6199;SDS011;3133;43.214;27.906;2023-08-20T14:21:15;11.57;;;5.63;;
6199;SDS011;3133;43.214;27.906;2023-08-20T14:23:41;11.33;;;5.50;;
6199;SDS011;3133;43.214;27.906;2023-08-20T14:26:08;12.07;;;6.00;;
6199;SDS011;3133;43.214;27.906;2023-08-20T14:28:35;12.23;;;6.13;;
6199;SDS011;3133;43.214;27.906;2023-08-20T14:31:02;8.80;;;5.63;;
6199;SDS011;3133;43.214;27.906;2023-08-20T14:33:29;12.90;;;6.20;;
6199;SDS011;3133;43.214;27.906;2023-08-20T14:35:58;9.03;;;5.53;;
6199;SDS011;3133;43.214;27.906;2023-08-20T14:38:27;11.53;;;5.70;;
6199;SDS011;3133;43.214;27.906;2023-08-20T14:40:58;6.70;;;5.57;;
6199;SDS011;3133;43.214;27.906;2023-08-20T14:43:26;12.53;;;5.50;;
6199;SDS011;3133;43.214;27.906;2023-08-20T14:45:53;9.20;;;5.77;;
6199;SDS011;3133;43.214;27.906;2023-08-20T14:48:20;12.80;;;6.47;;
6199;SDS011;3133;43.214;27.906;2023-08-20T14:50:47;12.60;;;6.30;;
6199;SDS011;3133;43.214;27.906;2023-08-20T14:53:18;9.40;;;5.83;;
6199;SDS011;3133;43.214;27.906;2023-08-20T14:55:46;8.37;;;5.80;;
6199;SDS011;3133;43.214;27.906;2023-08-20T14:58:13;12.30;;;6.67;;
6199;SDS011;3133;43.214;27.906;2023-08-20T15:00:41;14.77;;;6.37;;